William R Fairchild International Airport
KCLM : now visible

Airfield :











YOU CAN JOIN US ON...

 
LOGIN :

Register | Disclaimer

   EN    FR    IT 

 









Legend :    VFR   Marginal VFR   IFR   Intensive IFR   Very Intensive IFR
Visi :
Ceiling :
>= 8 km
>= 3000ft
5 to 8 km
1000 to 3000 ft
1500m to 5 km
500 to 1000 ft
800 to 1500m
200 to 500 ft
< 800m
< 200 ft
Symbols :   Thunderstorms  Fog  Heavy snow  Heavy precipitations  Wind > 20 kt






- Airport Elevation : 291 ft
- IATA code : CLM


KCLM - William R Fairchild International

CURRENT METAR :
  • 150653Z AUTO 00000KT 4SM -RA BR BKN011 BKN016 OVC028 03/02 A3004 RMK AO2 RAB46 SLP175 P0001 T00330022

EXPIRED METARs :
  • 150642Z AUTO 24006KT 10SM BKN013 OVC038 04/02 A3004 RMK AO2 T00390017
  • 150553Z AUTO 21005KT 10SM FEW017 FEW025 OVC038 03/02 A3003 RMK AO2 SLP171 T00280017 10033 20006 52006
  • 150535Z AUTO 23005KT 10SM SCT012 BKN018 OVC038 03/02 A3003 RMK AO2 T00280017
  • 150514Z AUTO 22005KT 10SM BKN013 OVC038 03/02 A3002 RMK AO2 T00280017
  • 150453Z AUTO 22005KT 10SM FEW013 OVC038 03/02 A3002 RMK AO2 SLP169 T00330017

TAF KCLM
Valid from the 15 at 06:00 until the 16 at 06:00 UTC


150536Z 1506/1606 22005KT P6SM VCSH SCT012 OVC035
TEMPO 1506/1509 6SM -SHRA BR BKN012
FM150900 23005KT P6SM BKN012 OVC050
FM151800 VRB04KT P6SM SCT015 BKN040
FM152200 VRB04KT P6SM BKN050



MET'MAP, your aeronautical weather chart ! - Copyright ORBIFLY December 2007 - Disclaimer

ORBIFLY MET'MAP TEAM :

Programming & Development : Alexandra Zaïnal
Concept & original design : Baudouin d'Aumeries
Assistance for programming : Marc-Olivier Méhu
Technical & hardware support : Manuel Goepfert

Contact : metmap@orbifly.com




SOURCES & CREDITS :

   NOAA       Earth
Advisory